Flight Track Log - Related Links

Times and Time Zones

All times are in EDT time to prevent confusion due to time zone crossing. See the N804JJ flight status page for this flight to view local times or setup timezone preferences in your user account.

Time Position Orientation Groundspeed Altitude Reporting Facility
EDT Latitude Longitude Course Direction KTS MPH feet Rate Location/Type
Tue 07:07:33 PM 33.5183 -84.3950 167° South 378 435 17,700  Level Atlanta Center
Tue 07:08:00 PM 33.4774 -84.2823 154° Southeast  Level Estimated
Tue 07:08:33 PM 33.4078 -84.3500 161° South 417 480 19,500  Level Atlanta Center
Tue 07:09:00 PM 33.3899 -84.2313 154° Southeast  Level Estimated
Tue 07:09:33 PM 33.2889 -84.2997 161° South 428 493 21,400  Level Atlanta Center
Tue 07:10:00 PM 33.3025 -84.1805 154° Southeast  Level Estimated
Tue 07:10:33 PM 33.1783 -84.2522 160° South 421 484 23,100  Level Atlanta Center
Tue 07:11:00 PM 33.1963 -84.1827 181° South  Level FlightAware Approximate
Tue 07:11:33 PM 33.0636 -84.2050 161° South 428 493 24,200  Level Atlanta Center
Tue 07:12:00 PM 33.1012 -84.1264 167° South  Level Estimated
Tue 07:12:33 PM 32.9489 -84.1528 159° South 433 498 25,500  Level Atlanta Center
Tue 07:13:33 PM 32.8319 -84.1106 163° South 433 498 27,300 1,600 Climbing Atlanta Center
Tue 07:14:33 PM 32.7172 -84.0611 160° South 438 504 28,700 1,390 Climbing Atlanta Center
Tue 07:16:30 PM 32.5003 -83.9689 160° South 465 535 31,400 1,458 Climbing Jacksonville Center
Tue 07:17:30 PM 32.3878 -83.9233 161° South 447 514 33,000 1,200 Climbing Jacksonville Center
Tue 07:18:30 PM 32.2756 -83.8778 161° South 440 506 33,800 800 Climbing Jacksonville Center
Tue 07:19:30 PM 32.1589 -83.8325 162° South 440 506 34,600 550 Climbing Jacksonville Center
Tue 07:20:30 PM 32.0422 -83.7847 161° South 445 512 34,900 200 Climbing Jacksonville Center
Tue 07:21:30 PM 31.9217 -83.7344 161° South 451 519 35,000 50 Climbing Jacksonville Center
Tue 07:22:30 PM 31.7819 -83.6772 161° South 479 551 35,000  Level Jacksonville Center
Tue 07:23:30 PM 31.6656 -83.5981 150° Southeast 479 551 35,000  Level Jacksonville Center
Tue 07:24:30 PM 31.5553 -83.5217 149° Southeast 501 577 35,000  Level Jacksonville Center
Tue 07:25:30 PM 31.4367 -83.4381 149° Southeast 501 577 35,000  Level Jacksonville Center
Tue 07:26:30 PM 31.3097 -83.3522 150° Southeast 501 577 35,000  Level Jacksonville Center
Tue 07:27:30 PM 31.1908 -83.2714 150° Southeast 496 571 35,000  Level Jacksonville Center
Tue 07:28:30 PM 31.0742 -83.1908 149° Southeast 490 564 35,000 -750 Level Jacksonville Center
Tue 07:29:30 PM 30.9553 -83.1131 151° Southeast 490 564 33,500 -4,000 Descending Jacksonville Center
Tue 07:30:30 PM 30.8364 -83.0281 148° Southeast 490 564 27,000 -3,300 Descending Jacksonville Center
Tue 07:31:30 PM 30.7153 -82.9481 150° Southeast 495 570 26,900  Descending Jacksonville Center
Tue 07:32:30 PM 30.6069 -82.8806 152° Southeast 495 570 27,000 -300 Climbing Jacksonville Center
Tue 07:33:30 PM 30.4794 -82.7914 149° Southeast 495 570 26,300 -900 Descending Jacksonville Center
Tue 07:34:30 PM 30.3583 -82.7097 150° Southeast 495 570 25,200 -550 Descending Jacksonville Center
Tue 07:35:30 PM 30.2475 -82.6378 151° Southeast 500 575 25,200 -100 Level Jacksonville Center
Tue 07:36:30 PM 30.1178 -82.5708 156° South 500 575 25,000 -100 Descending Jacksonville Center
Tue 07:37:30 PM 29.9819 -82.4992 155° Southeast 500 575 25,000  Level Jacksonville Center
Tue 07:38:30 PM 29.8564 -82.4353 156° South 500 575 25,000 -700 Level Jacksonville Center
Tue 07:39:30 PM 29.7289 -82.3689 156° South 500 575 23,600 -1,600 Descending Jacksonville Center
Tue 07:40:30 PM 29.6011 -82.3025 156° South 500 575 21,800 -1,850 Descending Jacksonville Center
Tue 07:41:30 PM 29.4778 -82.2389 156° South 500 575 19,900 -1,900 Descending Jacksonville Center
Tue 07:42:30 PM 29.3583 -82.1753 155° Southeast 489 563 18,000 -2,200 Descending Jacksonville Center
Tue 07:43:30 PM 29.2433 -82.1144 155° Southeast 471 542 15,500 -2,300 Descending Jacksonville Center
Tue 07:44:30 PM 29.1322 -82.0606 157° South 452 520 13,400 -1,950 Descending Jacksonville Center
Tue 07:45:30 PM 29.0275 -82.0067 156° South 433 498 11,600 -1,150 Descending Jacksonville Center
Tue 07:46:30 PM 28.9375 -81.9578 155° Southeast 388 447 11,100 -250 Descending Jacksonville Center
Tue 07:47:30 PM 28.8494 -81.9183 159° South 358 412 11,100 -480 Level Jacksonville Center
Tue 07:48:35 PM 28.7667 -81.8667 151° Southeast 314 361 10,100 -1,191 Descending Orlando TRACON
Tue 07:49:41 PM 28.6833 -81.8333 161° South 291 335 8,500 -1,619 Descending Orlando TRACON
Tue 07:50:41 PM 28.6000 -81.8000 161° South 284 327 6,700 -1,550 Descending Orlando TRACON
Tue 07:51:41 PM 28.5333 -81.7667 156° South 281 323 5,400 -1,368 Descending Orlando TRACON
Tue 07:52:35 PM 28.4667 -81.7333 156° South 277 319 4,100 -1,111 Descending Orlando TRACON
Tue 07:53:29 PM 28.4167 -81.7000 150° Southeast 237 273 3,400 -900 Descending Orlando TRACON
Tue 07:54:35 PM 28.3667 -81.6333 130° Southeast 223 257 2,300 -619 Descending Orlando TRACON
Tue 07:55:35 PM 28.3333 -81.5833 127° Southeast 207 238 2,100 -350 Descending Orlando TRACON
Tue 07:56:35 PM 28.3000 -81.5333 127° Southeast 181 208 1,600 -350 Descending Orlando TRACON
Tue 07:57:35 PM 28.2667 -81.5000 139° Southeast 151 174 1,400 -600 Descending Orlando TRACON
Tue 07:58:35 PM 28.2833 -81.4667 60° Northeast 104 120 400 -1,000 Descending Orlando TRACON
Tue 08:00:00 PM 28.2898 -81.4371 350° North  Level Estimated
Tue 08:07:00 PM 28.2898 -81.4371 350° North  Level Estimated
Tue 08:08:00 PM 28.2898 -81.4371 350° North  Level Estimated
Tue 08:09:00 PM 28.2898 -81.4371 350° North  Level Estimated
Tue 08:10:00 PM 28.2898 -81.4371 350° North  Level Estimated

Login

Don't have an account? Register now (free) for customized features, flight alerts, and more!